Time;durP1;ratioP1;P1;durP2;ratioP2;P2;SDS_P1;SDS_P2;PMS_P1;PMS_P2;Temp;Humidity;BMP_temperature;BMP_pressure;BME280_temperature;BME280_humidity;BME280_pressure;Samples;Min_cycle;Max_cycle;Signal;HPM_P1;HPM_P2
2021/12/03 00:00:20;;;;;;;2.20;2.00;;;;;;;;;;5057571;28;20452;-70
2021/12/03 00:02:48;;;;;;;2.30;1.83;;;;;;;;;;5057671;28;20446;-71
2021/12/03 00:05:17;;;;;;;1.83;1.70;;;;;;;;;;5057100;28;20491;-70
2021/12/03 00:07:46;;;;;;;3.93;2.37;;;;;;;;;;5052015;28;20457;-70
2021/12/03 00:10:15;;;;;;;5.27;2.13;;;;;;;;;;5060639;28;20457;-70
2021/12/03 00:12:44;;;;;;;2.90;2.20;;;;;;;;;;5061098;28;20556;-70
2021/12/03 00:15:12;;;;;;;2.93;1.90;;;;;;;;;;5061708;28;20485;-70
2021/12/03 00:17:40;;;;;;;6.27;2.93;;;;;;;;;;5061374;28;20925;-70
2021/12/03 00:20:11;;;;;;;3.93;2.97;;;;;;;;;;5061491;28;20445;-70
2021/12/03 00:22:39;;;;;;;3.97;2.33;;;;;;;;;;5047509;28;20936;-70
2021/12/03 00:25:09;;;;;;;3.30;3.00;;;;;;;;;;5060531;28;20528;-71
2021/12/03 00:27:37;;;;;;;3.13;2.40;;;;;;;;;;5057677;28;20453;-70
2021/12/03 00:30:06;;;;;;;2.37;1.67;;;;;;;;;;5061285;28;20445;-71
2021/12/03 00:32:34;;;;;;;4.47;2.43;;;;;;;;;;5061046;28;20449;-71
2021/12/03 00:35:04;;;;;;;2.83;2.27;;;;;;;;;;5060927;28;20571;-70
2021/12/03 00:37:32;;;;;;;5.27;2.20;;;;;;;;;;5048762;28;20493;-71
2021/12/03 00:40:00;;;;;;;4.47;1.87;;;;;;;;;;5057987;28;20534;-71
2021/12/03 00:42:29;;;;;;;2.47;2.20;;;;;;;;;;5060039;28;20452;-71
2021/12/03 00:44:57;;;;;;;3.07;2.03;;;;;;;;;;5060974;28;20956;-71
2021/12/03 00:47:26;;;;;;;2.27;1.70;;;;;;;;;;5061215;28;20445;-71
2021/12/03 00:49:54;;;;;;;2.83;2.17;;;;;;;;;;5060594;28;20483;-71
2021/12/03 00:52:22;;;;;;;5.47;2.17;;;;;;;;;;5057302;28;20464;-72
2021/12/03 00:54:49;;;;;;;3.67;2.17;;;;;;;;;;5062521;28;21002;-71
2021/12/03 00:57:17;;;;;;;5.00;2.40;;;;;;;;;;5059749;28;20452;-71
2021/12/03 00:59:47;;;;;;;3.83;1.87;;;;;;;;;;5060524;28;20473;-71
2021/12/03 01:02:16;;;;;;;3.77;2.10;;;;;;;;;;5060892;28;20445;-71
2021/12/03 01:04:46;;;;;;;3.33;1.60;;;;;;;;;;5060867;28;20448;-71
2021/12/03 01:07:14;;;;;;;6.10;2.03;;;;;;;;;;5047860;28;20461;-71
2021/12/03 01:09:43;;;;;;;3.73;1.70;;;;;;;;;;5059772;28;20955;-70
2021/12/03 01:12:11;;;;;;;2.30;1.90;;;;;;;;;;5057358;28;20481;-70
2021/12/03 01:14:40;;;;;;;2.40;2.20;;;;;;;;;;5060083;28;20563;-72
2021/12/03 01:17:09;;;;;;;2.13;1.90;;;;;;;;;;5060792;28;20776;-71
2021/12/03 01:19:38;;;;;;;2.17;1.67;;;;;;;;;;5058668;28;20449;-71
2021/12/03 01:22:06;;;;;;;1.70;1.60;;;;;;;;;;5055915;28;20457;-71
2021/12/03 01:24:34;;;;;;;2.93;1.83;;;;;;;;;;5060187;28;20604;-71
2021/12/03 01:27:02;;;;;;;3.67;1.90;;;;;;;;;;5058987;28;20468;-71
2021/12/03 01:29:30;;;;;;;1.83;1.57;;;;;;;;;;5059661;28;20463;-71
2021/12/03 01:31:57;;;;;;;3.60;2.13;;;;;;;;;;5060354;28;20449;-70
2021/12/03 01:34:27;;;;;;;7.87;1.80;;;;;;;;;;5050315;28;20981;-70
2021/12/03 01:36:55;;;;;;;2.53;1.73;;;;;;;;;;5045592;28;20903;-70
2021/12/03 01:39:23;;;;;;;4.17;2.30;;;;;;;;;;5048644;28;20545;-70
2021/12/03 01:41:51;;;;;;;2.43;2.23;;;;;;;;;;5049023;28;20511;-70
2021/12/03 01:44:19;;;;;;;2.93;2.23;;;;;;;;;;5050892;28;20834;-70
2021/12/03 01:46:47;;;;;;;3.03;1.97;;;;;;;;;;5048998;28;20441;-70
2021/12/03 01:49:15;;;;;;;2.43;2.23;;;;;;;;;;5045034;28;20460;-70
2021/12/03 01:51:45;;;;;;;2.67;2.20;;;;;;;;;;5053211;28;20986;-70
2021/12/03 01:54:13;;;;;;;2.30;1.90;;;;;;;;;;5049824;28;20492;-70
2021/12/03 01:56:41;;;;;;;3.37;1.90;;;;;;;;;;5048785;28;20517;-70
2021/12/03 01:59:10;;;;;;;4.70;2.10;;;;;;;;;;5046365;28;20467;-70
2021/12/03 02:01:38;;;;;;;5.93;2.40;;;;;;;;;;5046421;28;20480;-70
2021/12/03 02:04:07;;;;;;;5.27;2.33;;;;;;;;;;5045891;28;20514;-70
2021/12/03 02:06:35;;;;;;;2.40;2.27;;;;;;;;;;5046279;28;20438;-70
2021/12/03 02:09:05;;;;;;;3.17;2.13;;;;;;;;;;5049497;28;20459;-70
2021/12/03 02:11:33;;;;;;;2.87;2.30;;;;;;;;;;5058802;28;20445;-70
2021/12/03 02:14:01;;;;;;;3.60;2.10;;;;;;;;;;5058803;28;20921;-70
2021/12/03 02:16:29;;;;;;;3.60;2.17;;;;;;;;;;5044197;28;20572;-69
2021/12/03 02:18:57;;;;;;;2.93;2.20;;;;;;;;;;5058113;28;20476;-70
2021/12/03 02:21:27;;;;;;;5.23;2.77;;;;;;;;;;5058826;28;20445;-69
2021/12/03 02:23:56;;;;;;;3.10;1.97;;;;;;;;;;5040314;28;20454;-70
2021/12/03 02:26:24;;;;;;;3.53;2.10;;;;;;;;;;5054646;28;20458;-70
2021/12/03 02:28:52;;;;;;;2.57;2.37;;;;;;;;;;5058236;28;20828;-70
2021/12/03 02:31:21;;;;;;;2.83;1.97;;;;;;;;;;5058290;28;20897;-70
2021/12/03 02:33:50;;;;;;;3.30;2.17;;;;;;;;;;5058814;28;20544;-70
2021/12/03 02:36:19;;;;;;;3.50;2.27;;;;;;;;;;5058659;28;20485;-70
2021/12/03 02:38:49;;;;;;;2.77;2.27;;;;;;;;;;5046176;28;20477;-70
2021/12/03 02:41:17;;;;;;;2.30;2.10;;;;;;;;;;5058962;28;20445;-70
2021/12/03 02:43:45;;;;;;;4.90;2.70;;;;;;;;;;5058724;28;20445;-70
2021/12/03 02:46:13;;;;;;;2.63;2.20;;;;;;;;;;5046085;28;20460;-70
2021/12/03 02:48:41;;;;;;;3.40;2.50;;;;;;;;;;5054668;28;20980;-70
2021/12/03 02:51:09;;;;;;;3.17;2.30;;;;;;;;;;5058617;28;20951;-70
2021/12/03 02:53:37;;;;;;;3.07;2.40;;;;;;;;;;5049676;28;20458;-70
2021/12/03 02:56:07;;;;;;;5.23;2.50;;;;;;;;;;5057951;28;20481;-70
2021/12/03 02:58:35;;;;;;;4.53;2.63;;;;;;;;;;5057929;28;20557;-70
2021/12/03 03:01:04;;;;;;;3.53;2.27;;;;;;;;;;5058567;28;20447;-70
2021/12/03 03:03:32;;;;;;;8.93;2.27;;;;;;;;;;5058400;28;20514;-70
2021/12/03 03:06:02;;;;;;;2.40;2.20;;;;;;;;;;5058028;28;20929;-70
2021/12/03 03:08:31;;;;;;;6.67;1.97;;;;;;;;;;5056280;28;20477;-70
2021/12/03 03:11:00;;;;;;;4.40;2.47;;;;;;;;;;5058425;28;20461;-70
2021/12/03 03:13:30;;;;;;;4.30;2.17;;;;;;;;;;5057645;28;20564;-70
2021/12/03 03:15:58;;;;;;;3.43;2.20;;;;;;;;;;5057392;28;20564;-70
2021/12/03 03:18:28;;;;;;;7.57;2.37;;;;;;;;;;5057843;28;20488;-70
2021/12/03 03:20:59;;;;;;;3.20;2.50;;;;;;;;;;5057973;28;20929;-70
2021/12/03 03:23:28;;;;;;;4.50;2.43;;;;;;;;;;5052147;28;20457;-70
2021/12/03 03:25:56;;;;;;;2.50;2.30;;;;;;;;;;5058117;28;20438;-70
2021/12/03 03:28:24;;;;;;;2.73;2.30;;;;;;;;;;5056992;28;20568;-70
2021/12/03 03:30:55;;;;;;;3.40;2.10;;;;;;;;;;5057992;28;20453;-69
2021/12/03 03:33:23;;;;;;;2.67;2.43;;;;;;;;;;5057917;28;20925;-69
2021/12/03 03:35:51;;;;;;;5.17;2.40;;;;;;;;;;5057841;28;20485;-70
2021/12/03 03:38:19;;;;;;;4.53;2.20;;;;;;;;;;5054123;28;20473;-70
2021/12/03 03:40:48;;;;;;;4.73;2.47;;;;;;;;;;5057290;28;20457;-70
2021/12/03 03:43:16;;;;;;;5.10;2.40;;;;;;;;;;5057474;28;20970;-69
2021/12/03 03:45:45;;;;;;;3.60;2.40;;;;;;;;;;5056157;28;21024;-69
2021/12/03 03:48:14;;;;;;;2.97;2.43;;;;;;;;;;5049278;28;20484;-70
2021/12/03 03:50:42;;;;;;;3.93;2.57;;;;;;;;;;5055858;28;20449;-69
2021/12/03 03:53:10;;;;;;;2.77;2.40;;;;;;;;;;5047445;28;20986;-70
2021/12/03 03:55:38;;;;;;;2.77;2.10;;;;;;;;;;5057617;28;21017;-70
2021/12/03 03:58:06;;;;;;;2.50;2.00;;;;;;;;;;5056443;28;20469;-70
2021/12/03 04:00:35;;;;;;;6.23;2.53;;;;;;;;;;5057734;28;20449;-69
2021/12/03 04:03:04;;;;;;;2.43;2.23;;;;;;;;;;5057688;28;20475;-70
2021/12/03 04:05:33;;;;;;;2.27;2.07;;;;;;;;;;5057412;28;20449;-70
2021/12/03 04:08:01;;;;;;;3.80;2.77;;;;;;;;;;5054485;28;20465;-71
2021/12/03 04:10:29;;;;;;;4.63;2.37;;;;;;;;;;5048209;28;20446;-69
2021/12/03 04:12:57;;;;;;;3.93;2.40;;;;;;;;;;5056755;28;20864;-70
2021/12/03 04:15:25;;;;;;;5.37;3.03;;;;;;;;;;5057504;28;20445;-70
2021/12/03 04:17:53;;;;;;;3.63;2.43;;;;;;;;;;5057284;28;20803;-70
2021/12/03 04:20:22;;;;;;;3.60;2.43;;;;;;;;;;5055148;28;20810;-70
2021/12/03 04:22:51;;;;;;;2.57;2.30;;;;;;;;;;5055354;28;20541;-70
2021/12/03 04:25:21;;;;;;;3.57;2.67;;;;;;;;;;5049421;28;20472;-70
2021/12/03 04:27:49;;;;;;;3.50;2.47;;;;;;;;;;5055651;28;20454;-70
2021/12/03 04:30:19;;;;;;;2.40;1.97;;;;;;;;;;5056886;28;20536;-70
2021/12/03 04:32:47;;;;;;;3.63;2.67;;;;;;;;;;5057360;28;20445;-69
2021/12/03 04:35:15;;;;;;;3.63;2.50;;;;;;;;;;5057120;28;20455;-69
2021/12/03 04:37:43;;;;;;;3.63;2.50;;;;;;;;;;5049080;28;20573;-70
2021/12/03 04:40:13;;;;;;;2.37;1.87;;;;;;;;;;5054590;28;20446;-69
2021/12/03 04:42:41;;;;;;;4.67;2.27;;;;;;;;;;5057145;28;20445;-70
2021/12/03 04:45:10;;;;;;;2.80;2.13;;;;;;;;;;5057084;28;20472;-69
2021/12/03 04:47:39;;;;;;;2.40;2.20;;;;;;;;;;5057365;28;20452;-70
2021/12/03 04:50:08;;;;;;;3.17;2.70;;;;;;;;;;5054693;28;20451;-70
2021/12/03 04:52:36;;;;;;;8.83;2.23;;;;;;;;;;5036654;28;20980;-70
2021/12/03 04:55:05;;;;;;;2.57;2.30;;;;;;;;;;5057157;28;20457;-70
2021/12/03 04:57:34;;;;;;;3.03;2.47;;;;;;;;;;5059446;28;21094;-70
2021/12/03 05:00:04;;;;;;;2.50;2.30;;;;;;;;;;5060430;28;20467;-70
2021/12/03 05:02:32;;;;;;;5.57;2.67;;;;;;;;;;5060493;28;20966;-70
2021/12/03 05:05:03;;;;;;;5.20;2.30;;;;;;;;;;5060583;28;20494;-70
2021/12/03 05:07:42;;;;;;;3.47;1.90;;;;;;;;;;5060792;28;20445;-69
2021/12/03 05:10:11;;;;;;;7.90;2.40;;;;;;;;;;5059399;28;20457;-70
2021/12/03 05:12:40;;;;;;;3.97;2.27;;;;;;;;;;5060220;28;20538;-70
2021/12/03 05:15:28;;;;;;;2.93;1.80;;;;;;;;;;5060390;28;20812;-70
2021/12/03 05:17:56;;;;;;;3.07;1.93;;;;;;;;;;5060496;28;20553;-70
2021/12/03 05:20:24;;;;;;;3.83;2.23;;;;;;;;;;5060370;28;20441;-70
2021/12/03 05:22:53;;;;;;;3.53;2.17;;;;;;;;;;5051223;28;20468;-70
2021/12/03 05:25:21;;;;;;;4.17;2.20;;;;;;;;;;5054666;28;20457;-70
2021/12/03 05:27:51;;;;;;;2.43;2.20;;;;;;;;;;5059119;28;20453;-69
2021/12/03 05:30:19;;;;;;;3.60;2.63;;;;;;;;;;5060427;28;20438;-68
2021/12/03 05:32:47;;;;;;;2.43;2.00;;;;;;;;;;5060330;28;20446;-70
2021/12/03 05:35:15;;;;;;;3.73;2.53;;;;;;;;;;5060095;28;20445;-69
2021/12/03 05:37:43;;;;;;;3.50;2.63;;;;;;;;;;5059620;28;20489;-69
2021/12/03 05:40:13;;;;;;;3.40;2.00;;;;;;;;;;5053241;28;20456;-71
2021/12/03 05:42:42;;;;;;;2.53;2.03;;;;;;;;;;5059080;28;20461;-67
2021/12/03 05:45:12;;;;;;;2.57;2.30;;;;;;;;;;5059611;28;20524;-69
2021/12/03 05:47:40;;;;;;;2.97;2.63;;;;;;;;;;5057917;28;20441;-68
2021/12/03 05:50:10;;;;;;;3.83;2.37;;;;;;;;;;5058582;28;20468;-68
2021/12/03 05:52:38;;;;;;;3.67;3.07;;;;;;;;;;5056660;28;20440;-67
2021/12/03 05:55:07;;;;;;;2.50;2.30;;;;;;;;;;5060940;28;20456;-67
2021/12/03 05:57:35;;;;;;;3.53;2.30;;;;;;;;;;5058062;28;20838;-68
2021/12/03 06:00:04;;;;;;;4.97;3.13;;;;;;;;;;5058270;28;20536;-67
2021/12/03 06:02:33;;;;;;;4.90;3.10;;;;;;;;;;5058963;28;20491;-67
2021/12/03 06:05:01;;;;;;;4.10;3.00;;;;;;;;;;5059642;28;20437;-68
2021/12/03 06:07:29;;;;;;;3.93;2.87;;;;;;;;;;5061762;28;20444;-68
2021/12/03 06:09:57;;;;;;;4.70;3.20;;;;;;;;;;5057568;28;20473;-68
2021/12/03 06:12:25;;;;;;;4.67;3.03;;;;;;;;;;5059404;28;20834;-68
2021/12/03 06:14:53;;;;;;;3.13;2.83;;;;;;;;;;5060082;28;20464;-68
2021/12/03 06:17:21;;;;;;;3.60;2.53;;;;;;;;;;5059339;28;20478;-68
2021/12/03 06:19:50;;;;;;;3.23;2.50;;;;;;;;;;5058230;28;20476;-68
2021/12/03 06:22:18;;;;;;;3.40;3.10;;;;;;;;;;5059146;28;20445;-68
2021/12/03 06:24:46;;;;;;;2.67;2.47;;;;;;;;;;5055897;28;20456;-68
2021/12/03 06:27:14;;;;;;;5.20;2.33;;;;;;;;;;5057678;28;20461;-68
2021/12/03 06:29:43;;;;;;;3.20;2.90;;;;;;;;;;5058805;28;20470;-68
2021/12/03 06:32:11;;;;;;;3.83;3.20;;;;;;;;;;5054963;28;20446;-69
2021/12/03 06:34:39;;;;;;;3.77;3.07;;;;;;;;;;5046412;28;20992;-67
2021/12/03 06:37:09;;;;;;;4.03;2.90;;;;;;;;;;5047637;28;20474;-67
2021/12/03 06:39:37;;;;;;;3.17;2.60;;;;;;;;;;5047424;28;20538;-67
2021/12/03 06:42:05;;;;;;;7.30;3.37;;;;;;;;;;5048622;28;20451;-67
2021/12/03 06:44:33;;;;;;;7.93;4.30;;;;;;;;;;5078933;28;20440;-69
2021/12/03 06:47:02;;;;;;;2.87;2.63;;;;;;;;;;5078775;28;20516;-68
2021/12/03 06:49:33;;;;;;;4.33;3.27;;;;;;;;;;5060177;28;20826;-68
2021/12/03 06:52:03;;;;;;;5.27;3.07;;;;;;;;;;5058172;28;20481;-69
2021/12/03 06:54:34;;;;;;;4.70;3.13;;;;;;;;;;5050462;28;20492;-68
2021/12/03 06:57:04;;;;;;;4.13;3.03;;;;;;;;;;5044043;28;20457;-68
2021/12/03 06:59:32;;;;;;;3.43;3.17;;;;;;;;;;5058444;28;20468;-68
2021/12/03 07:02:00;;;;;;;3.10;2.90;;;;;;;;;;5058338;28;20835;-68
2021/12/03 07:04:28;;;;;;;3.80;3.33;;;;;;;;;;5058162;28;20441;-68
2021/12/03 07:06:56;;;;;;;4.13;2.80;;;;;;;;;;5058339;28;20442;-68
2021/12/03 07:09:24;;;;;;;4.57;2.97;;;;;;;;;;5058054;28;20471;-69
2021/12/03 07:11:53;;;;;;;4.83;3.43;;;;;;;;;;5055844;28;20964;-69
2021/12/03 07:14:21;;;;;;;5.03;3.87;;;;;;;;;;5057875;28;20476;-69
2021/12/03 07:16:49;;;;;;;4.33;3.47;;;;;;;;;;5057726;28;20792;-69
2021/12/03 07:19:17;;;;;;;10.90;4.67;;;;;;;;;;5058074;28;20485;-69
2021/12/03 07:21:45;;;;;;;6.13;3.60;;;;;;;;;;5057759;28;20445;-68
2021/12/03 07:24:13;;;;;;;3.27;2.90;;;;;;;;;;5055444;28;20457;-68
2021/12/03 07:26:41;;;;;;;3.97;3.10;;;;;;;;;;5055399;28;20540;-68
2021/12/03 07:29:11;;;;;;;6.63;3.30;;;;;;;;;;5051513;28;21040;-68
2021/12/03 07:31:39;;;;;;;5.50;3.63;;;;;;;;;;5056735;28;20944;-68
2021/12/03 07:34:07;;;;;;;3.57;2.90;;;;;;;;;;5057932;28;20460;-68
2021/12/03 07:36:35;;;;;;;2.97;2.77;;;;;;;;;;5058114;28;20445;-69
2021/12/03 07:39:03;;;;;;;6.50;3.20;;;;;;;;;;5054452;28;20485;-68
2021/12/03 07:41:31;;;;;;;6.63;3.20;;;;;;;;;;5057555;28;20445;-68
2021/12/03 07:43:59;;;;;;;3.93;2.50;;;;;;;;;;5057534;28;20900;-68
2021/12/03 07:46:28;;;;;;;7.33;3.70;;;;;;;;;;5055615;28;20444;-69
2021/12/03 07:48:56;;;;;;;2.73;2.50;;;;;;;;;;5043802;28;20469;-69
2021/12/03 07:51:26;;;;;;;4.97;3.00;;;;;;;;;;5057507;28;20449;-69
2021/12/03 07:53:54;;;;;;;4.53;3.20;;;;;;;;;;5052595;28;20457;-69
2021/12/03 07:56:22;;;;;;;8.17;6.13;;;;;;;;;;5055929;28;20462;-68
2021/12/03 07:58:50;;;;;;;10.67;5.67;;;;;;;;;;5056500;28;20495;-68
2021/12/03 08:01:18;;;;;;;5.47;3.70;;;;;;;;;;5057762;28;20442;-68
2021/12/03 08:03:48;;;;;;;3.30;3.00;;;;;;;;;;5057344;28;20492;-68
2021/12/03 08:06:16;;;;;;;6.20;3.10;;;;;;;;;;5057472;28;20448;-68
2021/12/03 08:08:44;;;;;;;4.30;3.20;;;;;;;;;;5057561;28;20461;-68
2021/12/03 08:11:12;;;;;;;4.10;2.80;;;;;;;;;;5049578;28;20526;-69
2021/12/03 08:13:40;;;;;;;4.47;2.57;;;;;;;;;;5057170;28;20473;-68
2021/12/03 08:16:08;;;;;;;4.00;2.47;;;;;;;;;;5057500;28;20456;-68
2021/12/03 08:18:36;;;;;;;4.93;3.07;;;;;;;;;;5047657;28;20580;-68
2021/12/03 08:21:05;;;;;;;8.23;3.13;;;;;;;;;;5057156;28;20448;-69
2021/12/03 08:23:33;;;;;;;6.40;3.17;;;;;;;;;;5051984;28;20462;-68
2021/12/03 08:26:01;;;;;;;10.97;3.97;;;;;;;;;;5056361;28;20452;-68
2021/12/03 08:28:29;;;;;;;3.73;2.83;;;;;;;;;;5058547;28;20468;-68
2021/12/03 08:30:57;;;;;;;5.33;3.40;;;;;;;;;;5059979;28;20468;-68
2021/12/03 08:33:25;;;;;;;3.77;3.03;;;;;;;;;;5061140;28;20768;-68
2021/12/03 08:35:54;;;;;;;3.97;2.80;;;;;;;;;;5061248;28;20454;-69
2021/12/03 08:38:23;;;;;;;4.27;3.60;;;;;;;;;;5060966;28;20485;-68
2021/12/03 08:41:07;;;;;;;6.87;4.37;;;;;;;;;;5051431;28;20457;-69
2021/12/03 08:43:35;;;;;;;3.50;3.20;;;;;;;;;;5056790;28;20457;-69
2021/12/03 08:46:09;;;;;;;6.47;3.90;;;;;;;;;;5061215;28;20445;-69
2021/12/03 08:48:41;;;;;;;4.60;3.43;;;;;;;;;;5047039;28;20500;-68
2021/12/03 08:51:22;;;;;;;5.63;3.27;;;;;;;;;;5060704;28;20445;-69
2021/12/03 08:56:36;;;;;;;5.30;3.23;;;;;;;;;;5056925;28;20456;-68
2021/12/03 08:59:05;;;;;;;5.37;3.50;;;;;;;;;;5058324;28;20853;-69
2021/12/03 09:01:33;;;;;;;6.53;3.67;;;;;;;;;;5060864;28;20447;-68
2021/12/03 09:04:01;;;;;;;5.23;3.53;;;;;;;;;;5055138;28;20461;-68
2021/12/03 09:06:29;;;;;;;4.70;3.93;;;;;;;;;;5059200;28;20484;-68
2021/12/03 09:08:58;;;;;;;4.30;3.53;;;;;;;;;;5051833;28;20464;-68
2021/12/03 09:11:29;;;;;;;4.07;3.60;;;;;;;;;;5060398;28;20481;-68
2021/12/03 09:13:59;;;;;;;3.47;3.10;;;;;;;;;;5058601;28;20488;-68
2021/12/03 09:16:34;;;;;;;5.00;2.93;;;;;;;;;;5060619;28;20445;-68
2021/12/03 09:19:05;;;;;;;3.53;2.73;;;;;;;;;;5060065;28;20523;-68
2021/12/03 09:21:35;;;;;;;4.93;3.03;;;;;;;;;;5060169;28;20441;-69
2021/12/03 09:24:11;;;;;;;6.93;3.33;;;;;;;;;;5049786;28;20462;-69
2021/12/03 09:26:40;;;;;;;4.40;2.80;;;;;;;;;;5060023;28;20445;-68
2021/12/03 09:29:10;;;;;;;9.40;3.50;;;;;;;;;;5056011;28;20469;-68
2021/12/03 09:31:41;;;;;;;3.20;2.80;;;;;;;;;;5060214;28;20453;-69
2021/12/03 09:34:11;;;;;;;3.03;2.50;;;;;;;;;;5059901;28;20442;-68
2021/12/03 09:36:41;;;;;;;5.97;3.10;;;;;;;;;;5060104;28;20441;-68
2021/12/03 09:39:15;;;;;;;5.43;2.80;;;;;;;;;;5059658;28;20485;-68
2021/12/03 09:41:43;;;;;;;4.20;3.40;;;;;;;;;;5059672;28;20536;-68
2021/12/03 09:44:11;;;;;;;6.03;2.80;;;;;;;;;;5050108;28;20483;-68
2021/12/03 09:46:39;;;;;;;2.53;2.30;;;;;;;;;;5056857;28;20459;-68
2021/12/03 09:49:32;;;;;;;4.37;2.27;;;;;;;;;;5055617;28;20477;-68
2021/12/03 09:52:09;;;;;;;5.57;2.47;;;;;;;;;;5059680;28;20442;-68
2021/12/03 09:54:43;;;;;;;2.30;2.20;;;;;;;;;;5056728;28;20539;-68
2021/12/03 09:57:13;;;;;;;3.60;2.90;;;;;;;;;;5056177;28;20948;-68
2021/12/03 10:02:33;;;;;;;4.20;2.60;;;;;;;;;;5078710;28;20476;-69
2021/12/03 10:13:46;;;;;;;2.53;2.27;;;;;;;;;;4997630;28;20468;-68
2021/12/03 10:18:58;;;;;;;3.17;2.87;;;;;;;;;;5056346;28;20483;-68
2021/12/03 10:21:58;;;;;;;6.23;3.07;;;;;;;;;;5049181;28;20524;-68
2021/12/03 10:30:20;;;;;;;3.27;2.80;;;;;;;;;;5058253;28;20847;-69
2021/12/03 10:38:49;;;;;;;2.67;2.47;;;;;;;;;;5002156;28;20477;-68
2021/12/03 10:41:25;;;;;;;2.83;2.50;;;;;;;;;;4996957;28;20530;-68
2021/12/03 10:44:16;;;;;;;2.73;2.53;;;;;;;;;;5033971;28;20482;-68
2021/12/03 10:47:01;;;;;;;3.73;2.23;;;;;;;;;;5078629;28;20815;-68
2021/12/03 10:50:01;;;;;;;3.20;2.90;;;;;;;;;;5078821;28;20547;-68
2021/12/03 10:52:36;;;;;;;3.60;2.87;;;;;;;;;;5067429;28;20945;-68
2021/12/03 10:55:38;;;;;;;4.87;3.47;;;;;;;;;;5057209;28;20465;-68
2021/12/03 12:04:31;;;;;;;5.53;3.20;;;;;;;;;;5106495;28;20461;-65
2021/12/03 12:16:22;;;;;;;2.70;2.23;;;;;;;;;;5098159;28;20198;-65
2021/12/03 12:19:12;;;;;;;5.23;2.40;;;;;;;;;;5097087;28;20477;-65
2021/12/03 13:08:25;;;;;;;5.17;3.07;;;;;;;;;;5087722;28;20537;-63
2021/12/03 13:14:01;;;;;;;3.10;2.80;;;;;;;;;;5092026;28;20442;-63
2021/12/03 13:40:14;;;;;;;7.70;3.53;;;;;;;;;;5092755;28;20478;-64
2021/12/03 14:02:10;;;;;;;9.70;3.97;;;;;;;;;;5098626;28;20526;-63
2021/12/03 14:36:38;;;;;;;7.47;3.77;;;;;;;;;;5097473;28;20491;-64
2021/12/03 14:42:22;;;;;;;3.40;3.10;;;;;;;;;;5080617;28;20460;-64
2021/12/03 14:45:00;;;;;;;5.17;3.47;;;;;;;;;;5097706;28;20984;-65
2021/12/03 14:47:42;;;;;;;7.70;3.40;;;;;;;;;;5095278;28;20883;-65
2021/12/03 14:50:33;;;;;;;7.67;3.10;;;;;;;;;;5088538;28;20848;-65
2021/12/03 14:53:16;;;;;;;3.77;2.90;;;;;;;;;;5085752;28;20436;-65
2021/12/03 14:55:48;;;;;;;5.93;3.20;;;;;;;;;;5088064;28;20460;-65
2021/12/03 14:58:19;;;;;;;3.50;3.00;;;;;;;;;;5088398;28;20490;-65
2021/12/03 15:00:54;;;;;;;6.13;3.40;;;;;;;;;;5087534;28;20454;-65
2021/12/03 15:03:35;;;;;;;5.40;3.00;;;;;;;;;;5088488;28;20774;-66
2021/12/03 15:06:11;;;;;;;7.57;3.37;;;;;;;;;;5089429;28;20440;-65
2021/12/03 15:08:43;;;;;;;5.00;3.63;;;;;;;;;;5090256;28;20501;-65
2021/12/03 15:25:30;;;;;;;4.63;3.10;;;;;;;;;;5079082;28;20996;-66
2021/12/03 15:28:18;;;;;;;6.27;3.50;;;;;;;;;;5077574;28;20445;-65
2021/12/03 15:31:01;;;;;;;5.33;3.63;;;;;;;;;;5078314;28;20467;-65
2021/12/03 15:33:47;;;;;;;5.30;3.03;;;;;;;;;;5095025;28;20463;-65
2021/12/03 15:36:18;;;;;;;7.57;3.30;;;;;;;;;;5083564;28;20484;-65
2021/12/03 15:38:56;;;;;;;3.57;3.10;;;;;;;;;;5092747;28;20482;-65
2021/12/03 15:41:47;;;;;;;4.33;3.00;;;;;;;;;;5081458;28;20455;-65
2021/12/03 15:58:46;;;;;;;4.13;3.27;;;;;;;;;;5033959;28;20557;-65
2021/12/03 16:04:04;;;;;;;3.93;3.43;;;;;;;;;;5095828;28;20466;-65
2021/12/03 16:06:43;;;;;;;5.53;3.43;;;;;;;;;;5078756;28;20444;-65
2021/12/03 16:09:19;;;;;;;5.37;3.33;;;;;;;;;;5084354;28;20506;-65
2021/12/03 16:11:54;;;;;;;3.37;2.73;;;;;;;;;;5086683;28;20465;-65
2021/12/03 16:25:58;;;;;;;3.13;2.50;;;;;;;;;;5100142;28;20461;-65
2021/12/03 16:51:10;;;;;;;4.23;3.00;;;;;;;;;;5100761;28;20444;-65
2021/12/03 16:53:38;;;;;;;6.50;3.00;;;;;;;;;;5086814;28;20456;-65
2021/12/03 16:56:19;;;;;;;5.57;3.13;;;;;;;;;;5100342;28;20439;-65
2021/12/03 16:58:47;;;;;;;4.83;3.00;;;;;;;;;;5100401;28;21068;-65
2021/12/03 17:01:21;;;;;;;4.00;3.30;;;;;;;;;;5100250;28;20444;-65
2021/12/03 17:03:54;;;;;;;3.10;2.87;;;;;;;;;;5100426;28;20450;-65
2021/12/03 17:12:16;;;;;;;4.03;3.13;;;;;;;;;;5094844;28;20468;-65
2021/12/03 17:32:13;;;;;;;5.67;3.30;;;;;;;;;;5083985;28;20437;-65
2021/12/03 17:56:55;;;;;;;5.13;3.77;;;;;;;;;;5080989;28;20463;-65
2021/12/03 17:59:26;;;;;;;6.70;3.80;;;;;;;;;;5098153;28;20848;-65
2021/12/03 18:01:57;;;;;;;4.47;3.40;;;;;;;;;;5092646;28;20455;-65
2021/12/03 18:04:37;;;;;;;7.10;3.80;;;;;;;;;;5079797;28;20449;-65
2021/12/03 18:07:12;;;;;;;7.00;3.93;;;;;;;;;;5078728;28;20440;-66
2021/12/03 18:18:57;;;;;;;4.90;3.80;;;;;;;;;;5037515;28;20483;-65
2021/12/03 18:46:45;;;;;;;5.70;3.93;;;;;;;;;;5077620;28;20455;-65
2021/12/03 18:52:16;;;;;;;6.63;4.50;;;;;;;;;;5087877;28;20829;-65
2021/12/03 18:54:49;;;;;;;3.90;3.40;;;;;;;;;;5089506;28;20441;-65
2021/12/03 18:57:19;;;;;;;7.10;4.83;;;;;;;;;;5088747;28;20440;-65
2021/12/03 18:59:54;;;;;;;9.50;5.80;;;;;;;;;;5091609;28;20478;-64
2021/12/03 19:02:24;;;;;;;8.07;4.97;;;;;;;;;;5090053;28;20458;-64
2021/12/03 19:04:56;;;;;;;7.10;4.87;;;;;;;;;;5087422;28;20448;-65
2021/12/03 19:07:30;;;;;;;5.90;3.90;;;;;;;;;;5086383;28;20452;-64
2021/12/03 19:10:04;;;;;;;5.60;3.43;;;;;;;;;;5089811;28;20474;-65
2021/12/03 19:12:33;;;;;;;3.67;3.33;;;;;;;;;;5088040;28;20452;-64
2021/12/03 19:15:02;;;;;;;6.60;4.30;;;;;;;;;;5088707;28;20436;-65
2021/12/03 19:17:36;;;;;;;3.87;2.90;;;;;;;;;;5089361;28;20436;-64
2021/12/03 19:20:04;;;;;;;5.20;3.10;;;;;;;;;;5087077;28;20966;-64
2021/12/03 19:22:34;;;;;;;4.33;3.07;;;;;;;;;;5090974;28;20436;-64
2021/12/03 19:25:02;;;;;;;6.23;3.73;;;;;;;;;;5089140;28;20498;-64
2021/12/03 19:27:30;;;;;;;5.17;3.20;;;;;;;;;;5088653;28;20439;-64
2021/12/03 19:29:59;;;;;;;6.33;3.00;;;;;;;;;;5085963;28;20452;-65
2021/12/03 19:32:31;;;;;;;3.93;3.07;;;;;;;;;;5087199;28;20459;-64
2021/12/03 19:34:59;;;;;;;4.27;2.93;;;;;;;;;;5088532;28;20464;-64
2021/12/03 19:37:28;;;;;;;4.13;3.23;;;;;;;;;;5089486;28;20459;-64
2021/12/03 19:39:59;;;;;;;6.53;2.87;;;;;;;;;;5088852;28;20567;-64
2021/12/03 19:42:32;;;;;;;3.80;2.80;;;;;;;;;;5087455;28;20938;-64
2021/12/03 19:45:03;;;;;;;4.30;3.20;;;;;;;;;;5088036;28;20439;-64
2021/12/03 19:47:33;;;;;;;4.50;2.97;;;;;;;;;;5087201;28;20463;-64
2021/12/03 19:50:18;;;;;;;4.57;3.30;;;;;;;;;;5086674;28;20497;-64
2021/12/03 19:52:53;;;;;;;3.50;3.07;;;;;;;;;;5088209;28;20435;-64
2021/12/03 19:55:22;;;;;;;4.50;3.40;;;;;;;;;;5086430;28;20465;-64
2021/12/03 19:57:50;;;;;;;4.97;3.30;;;;;;;;;;5086522;28;20439;-64
2021/12/03 20:00:18;;;;;;;4.53;3.37;;;;;;;;;;5093164;28;20837;-64
2021/12/03 20:02:47;;;;;;;5.93;3.43;;;;;;;;;;5090889;28;20431;-64
2021/12/03 20:05:14;;;;;;;6.10;3.03;;;;;;;;;;5080894;28;20444;-64
2021/12/03 20:07:44;;;;;;;5.33;3.47;;;;;;;;;;5079932;28;20868;-64
2021/12/03 20:10:13;;;;;;;7.23;3.73;;;;;;;;;;5093094;28;20533;-64
2021/12/03 20:12:43;;;;;;;6.37;3.43;;;;;;;;;;5096986;28;20451;-64
2021/12/03 20:15:18;;;;;;;6.67;3.93;;;;;;;;;;5082068;28;20440;-65
2021/12/03 20:17:50;;;;;;;5.50;3.20;;;;;;;;;;5092476;28;20511;-64
2021/12/03 20:20:18;;;;;;;5.70;3.37;;;;;;;;;;5081833;28;20481;-64
2021/12/03 20:22:50;;;;;;;6.27;3.37;;;;;;;;;;5087289;28;20431;-64
2021/12/03 20:28:07;;;;;;;8.33;4.27;;;;;;;;;;5082273;28;20460;-64
2021/12/03 20:30:39;;;;;;;7.87;4.63;;;;;;;;;;5084380;28;20432;-64
2021/12/03 20:33:21;;;;;;;6.10;3.80;;;;;;;;;;5080371;28;20519;-64
2021/12/03 20:38:32;;;;;;;4.87;4.27;;;;;;;;;;5082727;28;20463;-64
2021/12/03 20:41:02;;;;;;;5.27;3.87;;;;;;;;;;5082740;28;20454;-64
2021/12/03 20:43:42;;;;;;;6.87;4.00;;;;;;;;;;5081883;28;20866;-64
2021/12/03 20:46:22;;;;;;;4.67;4.10;;;;;;;;;;5082260;28;20447;-64
2021/12/03 20:54:33;;;;;;;6.03;4.57;;;;;;;;;;5090123;28;20811;-64
2021/12/03 20:57:18;;;;;;;6.03;3.80;;;;;;;;;;5100519;28;20447;-64
2021/12/03 21:10:50;;;;;;;6.73;4.77;;;;;;;;;;5099865;28;20446;-64
2021/12/03 21:13:25;;;;;;;9.50;5.13;;;;;;;;;;5100065;28;20444;-64
2021/12/03 21:18:51;;;;;;;6.80;4.57;;;;;;;;;;5094661;28;20466;-64
2021/12/03 21:21:28;;;;;;;4.87;3.73;;;;;;;;;;5099739;28;20939;-64
2021/12/03 21:23:56;;;;;;;4.83;3.60;;;;;;;;;;5099888;28;20447;-64
2021/12/03 21:26:25;;;;;;;4.13;3.50;;;;;;;;;;5099617;28;20443;-64
2021/12/03 21:29:03;;;;;;;5.63;3.20;;;;;;;;;;5097889;28;20485;-64
2021/12/03 21:31:35;;;;;;;4.27;3.40;;;;;;;;;;5079690;28;20810;-64
2021/12/03 21:40:07;;;;;;;6.47;3.83;;;;;;;;;;5049964;28;20488;-65
2021/12/03 21:42:36;;;;;;;6.33;3.80;;;;;;;;;;5086792;28;20447;-64
2021/12/03 21:45:04;;;;;;;4.90;3.70;;;;;;;;;;5099512;28;20443;-64
2021/12/03 21:47:34;;;;;;;8.53;3.93;;;;;;;;;;5099804;28;20493;-64
2021/12/03 21:50:02;;;;;;;5.30;3.93;;;;;;;;;;5099028;28;20966;-64
2021/12/03 21:52:30;;;;;;;5.57;4.23;;;;;;;;;;5099439;28;20435;-64
2021/12/03 21:54:58;;;;;;;6.90;4.23;;;;;;;;;;5099612;28;20448;-64